createdAt,value
2022-10-08T00:00:59.670Z,20.22
2022-10-08T00:03:30.791Z,20.21
2022-10-08T00:06:03.516Z,20.21
2022-10-08T00:08:31.875Z,20.18
2022-10-08T00:11:06.438Z,20.16
2022-10-08T00:13:40.706Z,20.12
2022-10-08T00:16:13.509Z,20.12
2022-10-08T00:18:41.441Z,20.12
2022-10-08T00:21:16.578Z,20.11
2022-10-08T00:23:47.101Z,20.09
2022-10-08T00:26:14.322Z,20.09
2022-10-08T00:28:45.006Z,20.02
2022-10-08T00:31:18.064Z,19.97
2022-10-08T00:33:44.865Z,19.90
2022-10-08T00:36:12.593Z,19.95
2022-10-08T00:38:39.315Z,19.93
2022-10-08T00:41:07.113Z,19.93
2022-10-08T00:43:42.727Z,19.89
2022-10-08T00:46:35.035Z,19.86
2022-10-08T00:49:13.769Z,19.87
2022-10-08T00:51:52.066Z,19.81
2022-10-08T00:54:19.977Z,19.78
2022-10-08T00:56:52.781Z,19.73
2022-10-08T00:59:20.329Z,19.84
2022-10-08T01:01:47.176Z,19.80
2022-10-08T01:04:15.502Z,19.74
2022-10-08T01:07:04.039Z,19.69
2022-10-08T01:09:51.847Z,19.58
2022-10-08T01:12:30.504Z,19.54
2022-10-08T01:15:23.471Z,19.52
2022-10-08T01:18:00.489Z,19.53
2022-10-08T01:20:33.033Z,19.52
2022-10-08T01:23:37.220Z,19.52
2022-10-08T01:26:10.168Z,19.50
2022-10-08T01:28:39.023Z,19.48
2022-10-08T01:31:09.557Z,19.43
2022-10-08T01:33:46.159Z,19.41
2022-10-08T01:36:14.416Z,19.45
2022-10-08T01:38:43.332Z,19.39
2022-10-08T01:41:11.433Z,19.41
2022-10-08T01:43:41.879Z,19.43
2022-10-08T01:46:15.354Z,19.36
2022-10-08T01:48:42.393Z,19.35
2022-10-08T01:51:18.469Z,19.28
2022-10-08T01:53:46.434Z,19.28
2022-10-08T01:56:16.342Z,19.28
2022-10-08T01:58:55.042Z,19.25
2022-10-08T02:01:35.429Z,19.22
2022-10-08T02:04:20.501Z,19.19
2022-10-08T02:06:51.274Z,19.20
2022-10-08T02:09:18.218Z,19.20
2022-10-08T02:11:44.797Z,19.18
2022-10-08T02:14:11.761Z,19.13
2022-10-08T02:16:43.854Z,19.12
2022-10-08T02:19:14.051Z,19.13
2022-10-08T02:21:41.098Z,19.17
2022-10-08T02:24:23.286Z,19.13
2022-10-08T02:26:51.398Z,19.08
2022-10-08T02:29:50.991Z,19.07
2022-10-08T02:32:59.144Z,19.06
2022-10-08T02:35:33.154Z,19.05
2022-10-08T02:38:10.505Z,19.01
2022-10-08T02:40:40.132Z,19.00
2022-10-08T02:43:11.102Z,18.98
2022-10-08T02:46:18.156Z,18.95
2022-10-08T02:48:54.590Z,18.98
2022-10-08T02:51:21.140Z,18.95
2022-10-08T02:53:49.362Z,19.01
2022-10-08T02:56:22.134Z,18.94
2022-10-08T02:58:48.754Z,18.95
2022-10-08T03:01:26.593Z,18.91
2022-10-08T03:04:17.386Z,18.94
2022-10-08T03:06:44.978Z,18.90
2022-10-08T03:09:13.234Z,18.84
2022-10-08T03:11:40.026Z,18.81
2022-10-08T03:14:09.274Z,18.85
2022-10-08T03:16:42.631Z,18.82
2022-10-08T03:19:10.718Z,18.78
2022-10-08T03:21:39.402Z,18.80
2022-10-08T03:24:10.478Z,18.76
2022-10-08T03:26:37.491Z,18.76
2022-10-08T03:29:04.773Z,18.74
2022-10-08T03:31:31.776Z,18.70
2022-10-08T03:33:58.312Z,18.69
2022-10-08T03:36:25.574Z,18.70
2022-10-08T03:38:52.520Z,18.71
2022-10-08T03:41:19.113Z,18.63
2022-10-08T03:43:45.931Z,18.68
2022-10-08T03:46:13.817Z,18.65
2022-10-08T03:48:40.889Z,18.60
2022-10-08T03:51:17.727Z,18.63
2022-10-08T03:53:44.458Z,18.62
2022-10-08T03:56:14.470Z,18.61
2022-10-08T03:58:41.263Z,18.62
2022-10-08T04:01:11.985Z,18.59
2022-10-08T04:03:38.627Z,18.58
2022-10-08T04:06:05.432Z,18.56
2022-10-08T04:08:33.162Z,18.58
2022-10-08T04:11:04.081Z,18.55
2022-10-08T04:13:30.571Z,18.56
2022-10-08T04:16:10.316Z,18.50
2022-10-08T04:18:37.083Z,18.47
2022-10-08T04:21:06.661Z,18.43
2022-10-08T04:23:35.516Z,18.45
2022-10-08T04:26:02.264Z,18.45
2022-10-08T04:28:30.883Z,18.39
2022-10-08T04:31:00.456Z,18.33
2022-10-08T04:33:28.257Z,18.37
2022-10-08T04:35:59.951Z,18.34
2022-10-08T04:38:27.573Z,18.36
2022-10-08T04:41:04.191Z,18.34
2022-10-08T04:43:30.944Z,18.29
2022-10-08T04:45:57.547Z,18.30
2022-10-08T04:48:24.271Z,18.30
2022-10-08T04:50:58.439Z,18.30
2022-10-08T04:53:27.757Z,18.30
2022-10-08T04:55:55.105Z,18.24
2022-10-08T04:58:22.791Z,18.26
2022-10-08T05:00:49.374Z,18.27
2022-10-08T05:03:15.941Z,18.26
2022-10-08T05:05:44.005Z,18.23
2022-10-08T05:08:10.947Z,18.22
2022-10-08T05:10:37.638Z,18.19
2022-10-08T05:13:04.299Z,18.15
2022-10-08T05:15:31.256Z,18.16
2022-10-08T05:17:57.822Z,18.12
2022-10-08T05:20:24.499Z,18.17
2022-10-08T05:22:51.126Z,18.12
2022-10-08T05:25:17.616Z,18.13
2022-10-08T05:27:44.113Z,18.10
2022-10-08T05:30:11.214Z,18.08
2022-10-08T05:32:37.756Z,18.13
2022-10-08T05:35:04.570Z,18.09
2022-10-08T05:37:31.189Z,18.07
2022-10-08T05:39:57.685Z,18.06
2022-10-08T05:42:24.400Z,18.07
2022-10-08T05:44:50.934Z,18.06
2022-10-08T05:47:17.426Z,18.07
2022-10-08T05:49:43.941Z,18.06
2022-10-08T05:52:10.542Z,18.06
2022-10-08T05:54:37.076Z,18.11
2022-10-08T05:57:03.980Z,18.12
2022-10-08T05:59:30.655Z,18.13
2022-10-08T06:01:57.174Z,18.16
2022-10-08T06:04:23.917Z,18.17
2022-10-08T06:06:50.531Z,18.17
2022-10-08T06:09:19.721Z,18.17
2022-10-08T06:11:46.830Z,18.19
2022-10-08T06:14:16.927Z,18.22
2022-10-08T06:16:43.811Z,18.22
2022-10-08T06:19:10.467Z,18.23
2022-10-08T06:21:37.589Z,18.20
2022-10-08T06:24:06.764Z,18.21
2022-10-08T06:26:36.524Z,18.23
2022-10-08T06:29:08.251Z,18.31
2022-10-08T06:31:35.321Z,18.36
2022-10-08T06:34:04.097Z,18.36
2022-10-08T06:36:31.130Z,18.40
2022-10-08T06:39:04.153Z,18.42
2022-10-08T06:41:30.701Z,18.45
2022-10-08T06:43:57.291Z,18.46
2022-10-08T06:46:24.086Z,18.47
2022-10-08T06:48:50.716Z,18.52
2022-10-08T06:51:18.740Z,18.58
2022-10-08T06:53:51.322Z,18.58
2022-10-08T06:56:20.776Z,18.60
2022-10-08T06:58:47.786Z,18.63
2022-10-08T07:01:20.108Z,18.66
2022-10-08T07:03:54.872Z,18.67
2022-10-08T07:06:21.827Z,18.65
2022-10-08T07:08:54.835Z,18.66
2022-10-08T07:11:22.254Z,18.69
2022-10-08T07:13:48.864Z,18.71
2022-10-08T07:16:21.448Z,18.68
2022-10-08T07:18:50.202Z,18.69
2022-10-08T07:21:18.295Z,18.72
2022-10-08T07:23:45.071Z,18.80
2022-10-08T07:26:15.273Z,18.85
2022-10-08T07:28:44.665Z,18.86
2022-10-08T07:31:14.887Z,18.90
2022-10-08T07:33:42.182Z,18.96
2022-10-08T07:36:11.197Z,19.04
2022-10-08T07:38:38.668Z,19.14
2022-10-08T07:41:06.110Z,19.18
2022-10-08T07:43:33.000Z,19.29
2022-10-08T07:45:59.689Z,19.37
2022-10-08T07:48:33.624Z,19.52
2022-10-08T07:51:11.860Z,19.60
2022-10-08T07:53:39.010Z,19.67
2022-10-08T07:56:06.750Z,19.73
2022-10-08T07:58:33.369Z,19.77
2022-10-08T08:01:02.984Z,19.78
2022-10-08T08:03:30.012Z,19.82
2022-10-08T08:06:12.141Z,19.83
2022-10-08T08:08:40.605Z,19.88
2022-10-08T08:11:07.581Z,19.92
2022-10-08T08:13:37.520Z,19.90
2022-10-08T08:16:07.562Z,19.99
2022-10-08T08:18:37.136Z,20.03
2022-10-08T08:21:09.202Z,20.10
2022-10-08T08:23:40.905Z,20.13
2022-10-08T08:26:09.735Z,20.19
2022-10-08T08:28:36.503Z,20.25
2022-10-08T08:31:13.965Z,20.29
2022-10-08T08:33:41.004Z,20.30
2022-10-08T08:36:08.015Z,20.34
2022-10-08T08:38:35.584Z,20.34
2022-10-08T08:41:20.769Z,20.37
2022-10-08T08:43:48.091Z,20.42
2022-10-08T08:46:17.484Z,20.45
2022-10-08T08:48:45.706Z,20.42
2022-10-08T08:51:12.554Z,20.25
2022-10-08T08:53:39.113Z,20.51
2022-10-08T08:56:08.041Z,20.41
2022-10-08T08:58:42.868Z,20.27
2022-10-08T09:01:09.317Z,20.19
2022-10-08T09:03:44.146Z,20.40
2022-10-08T09:06:14.199Z,20.60
2022-10-08T09:08:42.313Z,20.76
2022-10-08T09:11:21.694Z,20.87
2022-10-08T09:14:05.982Z,20.92
2022-10-08T09:16:34.146Z,20.97
2022-10-08T09:19:00.738Z,21.05
2022-10-08T09:21:29.751Z,21.14
2022-10-08T09:23:56.489Z,21.12
2022-10-08T09:26:24.746Z,21.12
2022-10-08T09:28:52.520Z,21.16
2022-10-08T09:31:29.635Z,21.24
2022-10-08T09:34:11.297Z,21.34
2022-10-08T09:36:48.269Z,21.65
2022-10-08T09:39:26.396Z,21.48
2022-10-08T09:42:08.307Z,21.56
2022-10-08T09:44:48.512Z,21.62
2022-10-08T09:47:19.979Z,21.70
2022-10-08T09:49:51.423Z,21.78
2022-10-08T09:52:22.163Z,21.90
2022-10-08T09:54:52.315Z,21.94
2022-10-08T09:57:20.689Z,21.97
2022-10-08T09:59:55.121Z,21.96
2022-10-08T10:02:32.862Z,22.05
2022-10-08T10:05:00.617Z,22.09
2022-10-08T10:07:41.978Z,22.19
2022-10-08T10:10:30.105Z,22.23
2022-10-08T10:13:20.470Z,22.39
2022-10-08T10:15:59.802Z,22.47
2022-10-08T10:18:32.644Z,22.52
2022-10-08T10:21:01.702Z,22.49
2022-10-08T10:23:49.015Z,22.55
2022-10-08T10:26:23.185Z,22.60
2022-10-08T10:28:58.797Z,22.67
2022-10-08T10:31:34.451Z,22.68
2022-10-08T10:34:14.218Z,22.64
2022-10-08T10:36:49.617Z,22.70
2022-10-08T10:39:39.397Z,22.81
2022-10-08T10:42:17.358Z,22.83
2022-10-08T10:44:49.456Z,22.89
2022-10-08T10:47:18.263Z,22.89
2022-10-08T10:49:44.863Z,22.83
2022-10-08T10:52:38.840Z,22.80
2022-10-08T10:55:18.092Z,22.84
2022-10-08T10:58:15.414Z,22.84
2022-10-08T11:00:57.052Z,22.90
2022-10-08T11:03:32.867Z,22.93
2022-10-08T11:06:30.964Z,22.99
2022-10-08T11:09:18.911Z,23.10
2022-10-08T11:11:48.770Z,23.12
2022-10-08T11:14:24.174Z,23.23
2022-10-08T11:17:01.399Z,23.24
2022-10-08T11:19:49.514Z,23.38
2022-10-08T11:22:27.946Z,23.51
2022-10-08T11:25:10.656Z,23.62
2022-10-08T11:27:45.788Z,23.68
2022-10-08T11:30:15.396Z,23.80
2022-10-08T11:32:45.158Z,23.85
2022-10-08T11:35:11.858Z,24.01
2022-10-08T11:38:10.002Z,24.00
2022-10-08T11:40:55.503Z,24.07
2022-10-08T11:43:33.196Z,24.10
2022-10-08T11:46:28.751Z,24.00
2022-10-08T11:49:00.528Z,23.95
2022-10-08T11:51:28.893Z,23.94
2022-10-08T11:54:31.445Z,23.96
2022-10-08T11:57:17.646Z,24.02
2022-10-08T11:59:46.583Z,24.13
2022-10-08T12:02:35.571Z,24.27
2022-10-08T12:05:23.969Z,24.34
2022-10-08T12:07:57.341Z,24.39
2022-10-08T12:10:34.955Z,24.42
2022-10-08T12:13:05.650Z,24.60
2022-10-08T12:15:34.120Z,24.71
2022-10-08T12:18:11.134Z,24.88
2022-10-08T12:20:39.498Z,25.02
2022-10-08T12:23:22.175Z,25.19
2022-10-08T12:26:00.733Z,25.41
2022-10-08T12:28:32.218Z,25.63
2022-10-08T12:31:01.612Z,25.78
2022-10-08T12:33:29.136Z,25.95
2022-10-08T12:36:10.897Z,26.05
2022-10-08T12:38:50.949Z,26.03
2022-10-08T12:42:14.917Z,26.01
2022-10-08T12:44:54.145Z,26.03
2022-10-08T12:47:41.793Z,26.18
2022-10-08T12:50:36.700Z,26.14
2022-10-08T12:53:04.638Z,26.42
2022-10-08T12:55:37.817Z,26.58
2022-10-08T12:58:04.823Z,26.37
2022-10-08T13:00:33.468Z,26.21
2022-10-08T13:03:13.006Z,26.07
2022-10-08T13:05:43.198Z,26.25
2022-10-08T13:08:29.944Z,26.46
2022-10-08T13:10:57.539Z,26.77
2022-10-08T13:13:39.323Z,27.05
2022-10-08T13:16:10.375Z,27.32
2022-10-08T13:18:38.626Z,27.57
2022-10-08T13:21:08.036Z,27.34
2022-10-08T13:23:40.670Z,27.27
2022-10-08T13:26:42.710Z,27.32
2022-10-08T13:29:21.436Z,27.14
2022-10-08T13:32:14.512Z,27.06
2022-10-08T13:34:41.229Z,27.05
2022-10-08T13:37:11.933Z,26.93
2022-10-08T13:39:41.868Z,26.78
2022-10-08T13:42:11.066Z,26.80
2022-10-08T13:44:39.561Z,26.55
2022-10-08T13:47:06.166Z,26.21
2022-10-08T13:49:33.181Z,25.84
2022-10-08T13:52:01.139Z,25.56
2022-10-08T13:54:30.703Z,25.37
2022-10-08T13:56:57.567Z,25.31
2022-10-08T13:59:29.559Z,25.28
2022-10-08T14:01:57.228Z,25.05
2022-10-08T14:04:23.852Z,24.94
2022-10-08T14:06:53.414Z,24.82
2022-10-08T14:09:23.462Z,24.77
2022-10-08T14:11:55.634Z,24.63
2022-10-08T14:14:26.326Z,24.66
2022-10-08T14:16:53.488Z,24.61
2022-10-08T14:19:21.230Z,24.56
2022-10-08T14:21:55.102Z,24.54
2022-10-08T14:24:21.658Z,24.48
2022-10-08T14:26:48.157Z,24.40
2022-10-08T14:29:14.812Z,24.43
2022-10-08T14:31:41.352Z,24.41
2022-10-08T14:34:07.874Z,24.37
2022-10-08T14:36:40.139Z,24.27
2022-10-08T14:39:06.751Z,24.16
2022-10-08T14:41:33.536Z,24.14
2022-10-08T14:44:00.169Z,24.17
2022-10-08T14:46:26.721Z,24.10
2022-10-08T14:48:53.505Z,24.11
2022-10-08T14:51:20.711Z,24.10
2022-10-08T14:53:47.206Z,24.08
2022-10-08T14:56:13.722Z,24.06
2022-10-08T14:58:40.304Z,23.92
2022-10-08T15:01:07.219Z,23.91
2022-10-08T15:03:33.947Z,23.94
2022-10-08T15:06:01.076Z,23.89
2022-10-08T15:08:28.387Z,23.85
2022-10-08T15:10:54.939Z,23.81
2022-10-08T15:13:21.569Z,23.72
2022-10-08T15:15:48.101Z,23.73
2022-10-08T15:18:14.706Z,23.66
2022-10-08T15:20:41.542Z,23.63
2022-10-08T15:23:10.183Z,23.53
2022-10-08T15:25:37.019Z,23.43
2022-10-08T15:28:03.778Z,23.39
2022-10-08T15:30:30.369Z,23.35
2022-10-08T15:33:02.379Z,23.27
2022-10-08T15:35:28.939Z,23.25
2022-10-08T15:37:55.475Z,23.13
2022-10-08T15:40:22.039Z,23.11
2022-10-08T15:42:51.035Z,23.07
2022-10-08T15:45:17.541Z,23.05
2022-10-08T15:47:44.026Z,23.02
2022-10-08T15:50:10.551Z,23.05
2022-10-08T15:52:37.114Z,23.01
2022-10-08T15:55:03.830Z,22.92
2022-10-08T15:57:30.369Z,22.89
2022-10-08T15:59:58.267Z,22.84
2022-10-08T16:02:25.024Z,22.80
2022-10-08T16:04:53.216Z,22.81
2022-10-08T16:07:19.964Z,22.79
2022-10-08T16:09:46.507Z,22.77
2022-10-08T16:12:13.234Z,22.80
2022-10-08T16:14:39.797Z,22.77
2022-10-08T16:17:06.473Z,22.71
2022-10-08T16:19:33.022Z,22.69
2022-10-08T16:22:01.046Z,22.61
2022-10-08T16:24:27.714Z,22.63
2022-10-08T16:26:54.258Z,22.61
2022-10-08T16:29:20.914Z,22.53
2022-10-08T16:31:47.577Z,22.52
2022-10-08T16:34:17.116Z,22.56
2022-10-08T16:36:44.106Z,22.48
2022-10-08T16:39:12.489Z,22.35
2022-10-08T16:41:39.179Z,22.37
2022-10-08T16:44:12.952Z,22.33
2022-10-08T16:46:41.849Z,22.26
2022-10-08T16:49:30.510Z,22.27
2022-10-08T16:51:59.450Z,22.31
2022-10-08T16:54:27.006Z,22.26
2022-10-08T16:56:54.028Z,22.20
2022-10-08T16:59:23.302Z,22.21
2022-10-08T17:01:52.693Z,22.14
2022-10-08T17:04:20.653Z,22.11
2022-10-08T17:06:47.649Z,22.06
2022-10-08T17:09:14.409Z,22.04
2022-10-08T17:11:41.873Z,22.06
2022-10-08T17:14:10.105Z,22.08
2022-10-08T17:16:36.980Z,21.98
2022-10-08T17:19:04.323Z,21.97
2022-10-08T17:21:32.043Z,21.95
2022-10-08T17:23:58.867Z,21.92
2022-10-08T17:26:27.521Z,21.86
2022-10-08T17:28:54.467Z,21.85
2022-10-08T17:31:26.115Z,21.83
2022-10-08T17:33:53.202Z,21.81
2022-10-08T17:36:22.390Z,21.73
2022-10-08T17:38:51.162Z,21.65
2022-10-08T17:41:20.372Z,21.68
2022-10-08T17:43:50.815Z,21.66
2022-10-08T17:46:18.882Z,21.61
2022-10-08T17:48:46.530Z,21.59
2022-10-08T17:51:15.350Z,21.59
2022-10-08T17:53:42.867Z,21.60
2022-10-08T17:56:12.220Z,21.66
2022-10-08T17:58:39.130Z,21.55
2022-10-08T18:01:08.915Z,21.55
2022-10-08T18:03:36.394Z,21.47
2022-10-08T18:06:03.525Z,21.46
2022-10-08T18:08:30.074Z,21.47
2022-10-08T18:10:56.739Z,21.42
2022-10-08T18:13:23.333Z,21.32
2022-10-08T18:15:49.882Z,21.30
2022-10-08T18:18:17.713Z,21.18
2022-10-08T18:20:57.846Z,21.15
2022-10-08T18:23:24.803Z,21.13
2022-10-08T18:25:53.893Z,21.17
2022-10-08T18:28:21.939Z,21.18
2022-10-08T18:30:48.706Z,21.13
2022-10-08T18:33:15.327Z,21.06
2022-10-08T18:35:41.873Z,21.03
2022-10-08T18:38:08.395Z,21.10
2022-10-08T18:40:34.899Z,21.05
2022-10-08T18:43:01.398Z,21.03
2022-10-08T18:45:27.912Z,21.05
2022-10-08T18:47:54.422Z,20.94
2022-10-08T18:50:20.936Z,20.95
2022-10-08T18:52:47.715Z,21.00
2022-10-08T18:55:14.547Z,20.93
2022-10-08T18:57:41.094Z,20.88
2022-10-08T19:00:08.289Z,20.85
2022-10-08T19:02:34.972Z,20.87
2022-10-08T19:05:01.645Z,20.89
2022-10-08T19:07:28.144Z,20.81
2022-10-08T19:09:55.575Z,20.77
2022-10-08T19:12:22.226Z,20.80
2022-10-08T19:14:49.474Z,20.77
2022-10-08T19:17:15.981Z,20.74
2022-10-08T19:19:42.669Z,20.75
2022-10-08T19:22:09.245Z,20.72
2022-10-08T19:24:40.684Z,20.80
2022-10-08T19:27:07.626Z,20.79
2022-10-08T19:29:35.906Z,20.78
2022-10-08T19:32:02.442Z,20.83
2022-10-08T19:34:29.062Z,20.82
2022-10-08T19:36:55.962Z,20.76
2022-10-08T19:39:27.938Z,20.76
2022-10-08T19:41:54.620Z,20.73
2022-10-08T19:44:21.208Z,20.70
2022-10-08T19:46:48.017Z,20.66
2022-10-08T19:49:15.326Z,20.68
2022-10-08T19:51:42.275Z,20.64
2022-10-08T19:54:08.820Z,20.67
2022-10-08T19:56:36.252Z,20.66
2022-10-08T19:59:02.906Z,20.62
2022-10-08T20:01:32.464Z,20.67
2022-10-08T20:04:00.427Z,20.67
2022-10-08T20:06:29.242Z,20.88
2022-10-08T20:08:58.151Z,21.06
2022-10-08T20:11:25.627Z,21.15
2022-10-08T20:13:53.132Z,21.17
2022-10-08T20:16:30.876Z,21.18
2022-10-08T20:19:03.249Z,21.19
2022-10-08T20:21:31.799Z,21.14
2022-10-08T20:23:58.613Z,20.97
2022-10-08T20:26:30.517Z,20.84
2022-10-08T20:28:59.505Z,20.74
2022-10-08T20:31:32.017Z,20.69
2022-10-08T20:34:30.923Z,20.65
2022-10-08T20:37:02.358Z,20.60
2022-10-08T20:39:29.149Z,20.58
2022-10-08T20:41:56.150Z,20.54
2022-10-08T20:44:22.689Z,20.51
2022-10-08T20:46:50.382Z,20.49
2022-10-08T20:49:17.357Z,20.50
2022-10-08T20:51:44.234Z,20.52
2022-10-08T20:54:13.312Z,20.52
2022-10-08T20:56:41.350Z,20.49
2022-10-08T20:59:09.483Z,20.40
2022-10-08T21:01:38.143Z,20.41
2022-10-08T21:04:05.762Z,20.36
2022-10-08T21:06:40.540Z,20.34
2022-10-08T21:09:07.759Z,20.31
2022-10-08T21:11:34.921Z,20.33
2022-10-08T21:14:03.386Z,20.36
2022-10-08T21:16:32.527Z,20.36
2022-10-08T21:19:04.217Z,20.29
2022-10-08T21:21:31.607Z,20.24
2022-10-08T21:23:58.922Z,20.22
2022-10-08T21:26:28.055Z,20.26
2022-10-08T21:28:58.776Z,20.23
2022-10-08T21:31:26.842Z,20.25
2022-10-08T21:33:54.162Z,20.26
2022-10-08T21:36:23.088Z,20.25
2022-10-08T21:38:49.627Z,20.25
2022-10-08T21:41:17.920Z,20.29
2022-10-08T21:43:47.257Z,20.25
2022-10-08T21:46:17.357Z,20.29
2022-10-08T21:48:44.072Z,20.26
2022-10-08T21:51:16.663Z,20.26
2022-10-08T21:53:48.194Z,20.27
2022-10-08T21:56:17.096Z,20.22
2022-10-08T21:58:46.209Z,20.25
2022-10-08T22:01:29.021Z,20.19
2022-10-08T22:04:01.718Z,20.23
2022-10-08T22:06:30.584Z,20.24
2022-10-08T22:08:57.511Z,20.21
2022-10-08T22:11:24.665Z,20.23
2022-10-08T22:13:51.658Z,20.18
2022-10-08T22:16:19.726Z,20.21
2022-10-08T22:18:46.480Z,20.20
2022-10-08T22:21:15.938Z,20.20
2022-10-08T22:23:42.574Z,20.15
2022-10-08T22:26:15.506Z,20.13
2022-10-08T22:28:42.536Z,20.05
2022-10-08T22:31:10.885Z,20.07
2022-10-08T22:33:37.360Z,20.15
2022-10-08T22:36:09.076Z,20.11
2022-10-08T22:38:37.457Z,20.16
2022-10-08T22:41:04.892Z,20.13
2022-10-08T22:43:31.676Z,20.07
2022-10-08T22:46:05.609Z,20.09
2022-10-08T22:48:32.328Z,20.07
2022-10-08T22:51:11.906Z,20.08
2022-10-08T22:53:38.724Z,20.07
2022-10-08T22:56:07.429Z,20.04
2022-10-08T22:58:34.506Z,20.01
2022-10-08T23:01:09.013Z,19.99
2022-10-08T23:03:36.596Z,19.93
2022-10-08T23:06:14.206Z,19.86
2022-10-08T23:08:41.255Z,19.78
2022-10-08T23:11:08.193Z,19.76
2022-10-08T23:13:34.915Z,19.77
2022-10-08T23:16:10.043Z,19.79
2022-10-08T23:18:38.726Z,19.75
2022-10-08T23:21:15.466Z,19.75
2022-10-08T23:23:43.238Z,19.74
2022-10-08T23:26:10.009Z,19.72
2022-10-08T23:28:37.834Z,19.71
2022-10-08T23:31:10.339Z,19.71
2022-10-08T23:33:38.494Z,19.70
2022-10-08T23:36:06.538Z,19.69
2022-10-08T23:38:34.676Z,19.69
2022-10-08T23:41:02.766Z,19.70
2022-10-08T23:43:29.859Z,19.70
2022-10-08T23:45:56.562Z,19.66
2022-10-08T23:48:23.213Z,19.68
2022-10-08T23:50:51.548Z,19.67
2022-10-08T23:53:18.605Z,19.68
2022-10-08T23:55:45.274Z,19.65
2022-10-08T23:58:12.040Z,19.61
